createdAt,value
2023-03-25T00:00:48.932Z,96.22
2023-03-25T00:01:48.891Z,96.12
2023-03-25T00:02:48.945Z,95.75
2023-03-25T00:03:48.828Z,95.75
2023-03-25T00:04:48.803Z,95.91
2023-03-25T00:05:48.829Z,97.29
2023-03-25T00:06:48.663Z,95.91
2023-03-25T00:07:48.639Z,96.12
2023-03-25T00:08:48.626Z,96.22
2023-03-25T00:09:48.518Z,96.83
2023-03-25T00:10:48.515Z,96.53
2023-03-25T00:11:48.449Z,95.70
2023-03-25T00:12:48.397Z,96.32
2023-03-25T00:13:48.378Z,95.91
2023-03-25T00:14:48.361Z,95.91
2023-03-25T00:15:48.467Z,95.70
2023-03-25T00:16:48.342Z,96.53
2023-03-25T00:17:48.248Z,96.32
2023-03-25T00:18:48.178Z,96.42
2023-03-25T00:19:48.135Z,95.91
2023-03-25T00:20:48.084Z,96.12
2023-03-25T00:21:48.026Z,96.01
2023-03-25T00:22:48.024Z,97.14
2023-03-25T00:23:47.957Z,95.76
2023-03-25T00:24:47.902Z,96.73
2023-03-25T00:25:48.018Z,96.42
2023-03-25T00:26:47.817Z,96.42
2023-03-25T00:27:47.841Z,96.63
2023-03-25T00:28:47.756Z,96.01
2023-03-25T00:29:47.726Z,96.73
2023-03-25T00:30:47.707Z,96.22
2023-03-25T00:31:47.619Z,96.42
2023-03-25T00:32:47.615Z,96.12
2023-03-25T00:33:47.575Z,95.70
2023-03-25T00:34:47.861Z,96.12
2023-03-25T00:35:47.499Z,95.81
2023-03-25T00:36:47.427Z,95.61
2023-03-25T00:37:47.402Z,96.42
2023-03-25T00:38:47.328Z,95.97
2023-03-25T00:39:47.338Z,96.42
2023-03-25T00:40:47.263Z,96.53
2023-03-25T00:41:47.232Z,94.99
2023-03-25T00:42:47.168Z,95.25
2023-03-25T00:43:47.147Z,95.20
2023-03-25T00:44:47.094Z,95.76
2023-03-25T00:45:47.059Z,95.70
2023-03-25T00:46:47.136Z,95.25
2023-03-25T00:47:47.025Z,95.97
2023-03-25T00:48:46.962Z,95.46
2023-03-25T00:49:46.893Z,95.70
2023-03-25T00:50:46.847Z,95.56
2023-03-25T00:51:53.036Z,95.20
2023-03-25T00:52:46.779Z,95.50
2023-03-25T00:53:46.723Z,95.56
2023-03-25T00:54:46.667Z,94.78
2023-03-25T00:55:46.643Z,94.99
2023-03-25T00:56:46.655Z,95.46
2023-03-25T00:57:46.565Z,95.29
2023-03-25T00:58:46.551Z,95.36
2023-03-25T00:59:46.502Z,94.02
2023-03-25T01:00:46.453Z,94.12
2023-03-25T01:01:46.461Z,94.54
2023-03-25T01:02:46.404Z,94.78
2023-03-25T01:03:46.321Z,94.64
2023-03-25T01:04:46.264Z,94.95
2023-03-25T01:05:46.236Z,94.33
2023-03-25T01:06:46.220Z,94.17
2023-03-25T01:07:46.139Z,94.33
2023-03-25T01:08:46.138Z,93.71
2023-03-25T01:09:46.061Z,93.62
2023-03-25T01:10:54.959Z,93.04
2023-03-25T01:11:46.110Z,93.00
2023-03-25T01:12:46.859Z,93.62
2023-03-25T01:13:46.000Z,92.69
2023-03-25T01:14:45.904Z,92.90
2023-03-25T01:15:45.849Z,92.79
2023-03-25T01:16:53.324Z,92.38
2023-03-25T01:17:45.859Z,91.97
2023-03-25T01:18:45.804Z,92.08
2023-03-25T01:19:45.733Z,92.59
2023-03-25T01:20:45.635Z,91.87
2023-03-25T01:21:45.624Z,91.87
2023-03-25T01:22:45.541Z,91.26
2023-03-25T01:23:45.526Z,90.84
2023-03-25T01:24:45.449Z,91.16
2023-03-25T01:25:45.414Z,90.95
2023-03-25T01:26:45.370Z,90.64
2023-03-25T01:27:45.331Z,90.84
2023-03-25T01:28:45.300Z,90.84
2023-03-25T01:29:45.260Z,91.26
2023-03-25T01:30:45.198Z,90.84
2023-03-25T01:31:45.180Z,90.75
2023-03-25T01:32:45.165Z,90.44
2023-03-25T01:33:45.078Z,90.64
2023-03-25T01:34:45.043Z,90.70
2023-03-25T01:35:45.012Z,90.64
2023-03-25T01:36:44.982Z,90.84
2023-03-25T01:37:44.909Z,91.16
2023-03-25T01:38:44.900Z,90.84
2023-03-25T01:39:44.835Z,90.84
2023-03-25T01:40:44.837Z,90.23
2023-03-25T01:41:50.307Z,90.13
2023-03-25T01:42:45.319Z,90.34
2023-03-25T01:43:44.695Z,89.83
2023-03-25T01:44:44.624Z,90.23
2023-03-25T01:45:44.580Z,90.44
2023-03-25T01:46:44.592Z,90.44
2023-03-25T01:47:44.542Z,90.54
2023-03-25T01:48:44.471Z,89.62
2023-03-25T01:49:44.652Z,90.23
2023-03-25T01:50:44.391Z,89.83
2023-03-25T01:51:44.366Z,89.83
2023-03-25T01:52:44.333Z,89.72
2023-03-25T01:53:44.286Z,89.83
2023-03-25T01:54:44.237Z,89.72
2023-03-25T01:55:44.194Z,89.92
2023-03-25T01:56:44.145Z,90.54
2023-03-25T01:57:44.124Z,89.62
2023-03-25T01:58:44.059Z,90.03
2023-03-25T01:59:44.020Z,90.64
2023-03-25T02:00:43.983Z,90.64
2023-03-25T02:01:43.969Z,90.64
2023-03-25T02:02:43.910Z,91.05
2023-03-25T02:03:43.936Z,90.13
2023-03-25T02:04:43.814Z,90.84
2023-03-25T02:05:43.769Z,90.69
2023-03-25T02:06:43.741Z,90.34
2023-03-25T02:07:43.710Z,90.54
2023-03-25T02:08:43.662Z,90.34
2023-03-25T02:09:43.637Z,90.34
2023-03-25T02:10:43.581Z,90.44
2023-03-25T02:11:43.539Z,89.83
2023-03-25T02:12:43.495Z,90.03
2023-03-25T02:13:43.446Z,90.75
2023-03-25T02:14:43.442Z,90.54
2023-03-25T02:15:43.388Z,90.23
2023-03-25T02:16:43.380Z,90.64
2023-03-25T02:17:43.378Z,90.64
2023-03-25T02:18:43.259Z,90.75
2023-03-25T02:19:43.225Z,90.48
2023-03-25T02:20:43.191Z,90.34
2023-03-25T02:21:43.138Z,90.44
2023-03-25T02:22:43.112Z,90.44
2023-03-25T02:23:43.094Z,90.44
2023-03-25T02:24:43.018Z,90.37
2023-03-25T02:25:42.945Z,90.75
2023-03-25T02:26:42.922Z,90.99
2023-03-25T02:27:42.859Z,90.95
2023-03-25T02:28:42.847Z,90.79
2023-03-25T02:29:42.813Z,90.99
2023-03-25T02:30:42.762Z,91.09
2023-03-25T02:31:42.741Z,90.79
2023-03-25T02:32:42.724Z,90.69
2023-03-25T02:33:42.659Z,90.79
2023-03-25T02:34:42.593Z,90.58
2023-03-25T02:35:42.596Z,91.40
2023-03-25T02:36:42.502Z,90.79
2023-03-25T02:37:42.469Z,90.79
2023-03-25T02:38:42.448Z,90.89
2023-03-25T02:39:42.401Z,90.69
2023-03-25T02:40:42.431Z,90.69
2023-03-25T02:41:42.311Z,90.69
2023-03-25T02:42:42.257Z,91.40
2023-03-25T02:43:42.239Z,90.69
2023-03-25T02:44:42.191Z,90.69
2023-03-25T02:45:42.199Z,90.89
2023-03-25T02:46:42.098Z,90.69
2023-03-25T02:47:42.133Z,90.48
2023-03-25T02:48:42.016Z,90.69
2023-03-25T02:49:41.975Z,90.69
2023-03-25T02:50:41.928Z,90.99
2023-03-25T02:51:41.921Z,91.40
2023-03-25T02:52:41.859Z,91.20
2023-03-25T02:53:41.853Z,90.79
2023-03-25T02:54:41.784Z,91.20
2023-03-25T02:55:41.730Z,91.09
2023-03-25T02:56:41.718Z,90.89
2023-03-25T02:57:41.670Z,91.09
2023-03-25T02:58:41.611Z,90.69
2023-03-25T02:59:41.617Z,90.99
2023-03-25T03:00:41.525Z,90.89
2023-03-25T03:01:41.519Z,91.50
2023-03-25T03:02:41.537Z,91.24
2023-03-25T03:03:41.456Z,91.20
2023-03-25T03:04:41.346Z,91.71
2023-03-25T03:05:41.327Z,91.61
2023-03-25T03:06:41.274Z,91.40
2023-03-25T03:07:41.237Z,91.50
2023-03-25T03:08:41.257Z,91.09
2023-03-25T03:09:41.167Z,91.86
2023-03-25T03:10:41.104Z,91.20
2023-03-25T03:11:41.086Z,91.40
2023-03-25T03:12:41.039Z,91.30
2023-03-25T03:13:40.999Z,91.61
2023-03-25T03:14:40.962Z,91.30
2023-03-25T03:15:40.947Z,91.35
2023-03-25T03:16:40.897Z,91.50
2023-03-25T03:17:40.895Z,91.40
2023-03-25T03:18:40.900Z,91.71
2023-03-25T03:19:40.744Z,91.20
2023-03-25T03:20:40.716Z,91.82
2023-03-25T03:21:40.712Z,91.91
2023-03-25T03:22:40.633Z,92.22
2023-03-25T03:23:40.584Z,92.68
2023-03-25T03:24:40.541Z,92.63
2023-03-25T03:25:40.511Z,92.22
2023-03-25T03:26:40.476Z,92.43
2023-03-25T03:27:40.437Z,92.32
2023-03-25T03:28:40.361Z,92.22
2023-03-25T03:29:40.368Z,92.83
2023-03-25T03:30:40.308Z,93.15
2023-03-25T03:31:48.551Z,92.83
2023-03-25T03:32:40.238Z,92.43
2023-03-25T03:33:40.187Z,92.32
2023-03-25T03:34:40.133Z,92.53
2023-03-25T03:35:40.158Z,92.63
2023-03-25T03:36:40.084Z,92.43
2023-03-25T03:37:40.057Z,92.36
2023-03-25T03:38:39.990Z,92.74
2023-03-25T03:39:39.927Z,92.32
2023-03-25T03:40:39.912Z,92.27
2023-03-25T03:41:39.921Z,92.32
2023-03-25T03:42:39.797Z,92.83
2023-03-25T03:43:39.790Z,92.36
2023-03-25T03:44:39.733Z,92.43
2023-03-25T03:45:39.699Z,92.12
2023-03-25T03:46:39.749Z,92.57
2023-03-25T03:47:39.675Z,92.22
2023-03-25T03:48:39.540Z,91.50
2023-03-25T03:49:39.526Z,91.91
2023-03-25T03:50:39.480Z,91.82
2023-03-25T03:51:39.433Z,92.32
2023-03-25T03:52:39.403Z,92.02
2023-03-25T03:53:39.385Z,92.32
2023-03-25T03:54:39.339Z,92.53
2023-03-25T03:55:39.307Z,92.12
2023-03-25T03:56:39.240Z,92.02
2023-03-25T03:57:39.185Z,92.16
2023-03-25T03:58:39.189Z,92.43
2023-03-25T03:59:39.107Z,92.63
2023-03-25T04:00:39.055Z,92.94
2023-03-25T04:01:39.117Z,93.49
2023-03-25T04:02:39.021Z,93.60
2023-03-25T04:03:39.165Z,93.55
2023-03-25T04:04:38.931Z,93.80
2023-03-25T04:05:38.857Z,93.39
2023-03-25T04:06:38.835Z,93.80
2023-03-25T04:07:39.020Z,93.90
2023-03-25T04:08:38.730Z,93.90
2023-03-25T04:09:38.737Z,93.80
2023-03-25T04:10:38.672Z,94.01
2023-03-25T04:11:38.652Z,93.80
2023-03-25T04:12:38.590Z,94.01
2023-03-25T04:13:38.535Z,93.60
2023-03-25T04:14:38.501Z,93.49
2023-03-25T04:15:38.476Z,93.60
2023-03-25T04:16:38.497Z,93.19
2023-03-25T04:17:38.391Z,93.49
2023-03-25T04:18:38.324Z,93.49
2023-03-25T04:19:38.307Z,93.19
2023-03-25T04:20:38.249Z,92.88
2023-03-25T04:21:38.211Z,93.70
2023-03-25T04:22:38.161Z,93.70
2023-03-25T04:23:38.122Z,92.98
2023-03-25T04:24:38.077Z,93.19
2023-03-25T04:25:38.059Z,92.47
2023-03-25T04:26:38.013Z,92.78
2023-03-25T04:27:38.041Z,92.36
2023-03-25T04:28:37.899Z,92.68
2023-03-25T04:29:37.929Z,92.16
2023-03-25T04:30:37.849Z,91.35
2023-03-25T04:31:37.982Z,91.40
2023-03-25T04:32:37.818Z,91.14
2023-03-25T04:33:37.718Z,91.50
2023-03-25T04:34:37.677Z,91.03
2023-03-25T04:35:37.632Z,91.24
2023-03-25T04:36:37.636Z,91.14
2023-03-25T04:37:37.546Z,90.83
2023-03-25T04:38:37.495Z,91.03
2023-03-25T04:39:37.467Z,91.24
2023-03-25T04:40:37.425Z,90.73
2023-03-25T04:41:37.407Z,90.83
2023-03-25T04:42:37.348Z,91.14
2023-03-25T04:43:37.310Z,90.63
2023-03-25T04:44:37.240Z,90.07
2023-03-25T04:45:37.243Z,89.87
2023-03-25T04:46:37.174Z,89.60
2023-03-25T04:47:37.510Z,90.99
2023-03-25T04:48:37.085Z,90.79
2023-03-25T04:49:37.034Z,90.07
2023-03-25T04:50:37.008Z,89.56
2023-03-25T04:51:36.965Z,89.45
2023-03-25T04:52:36.936Z,89.76
2023-03-25T04:53:36.893Z,89.56
2023-03-25T04:54:36.873Z,89.25
2023-03-25T04:55:36.802Z,89.04
2023-03-25T04:56:36.814Z,88.94
2023-03-25T04:57:36.717Z,89.29
2023-03-25T04:58:36.696Z,88.74
2023-03-25T04:59:36.629Z,88.64
2023-03-25T05:00:36.600Z,88.33
2023-03-25T05:01:36.571Z,88.12
2023-03-25T05:02:36.555Z,88.33
2023-03-25T05:03:36.473Z,88.33
2023-03-25T05:04:36.567Z,88.02
2023-03-25T05:05:36.404Z,88.08
2023-03-25T05:06:36.370Z,88.33
2023-03-25T05:07:36.314Z,88.64
2023-03-25T05:08:36.283Z,88.53
2023-03-25T05:09:36.237Z,89.92
2023-03-25T05:10:36.284Z,89.42
2023-03-25T05:11:36.147Z,89.76
2023-03-25T05:12:36.136Z,90.58
2023-03-25T05:13:36.063Z,90.69
2023-03-25T05:14:36.020Z,90.99
2023-03-25T05:15:35.980Z,92.36
2023-03-25T05:16:35.962Z,92.98
2023-03-25T05:17:35.954Z,93.08
2023-03-25T05:18:35.894Z,92.78
2023-03-25T05:19:35.814Z,92.72
2023-03-25T05:20:35.800Z,92.78
2023-03-25T05:21:35.733Z,93.13
2023-03-25T05:22:35.690Z,93.54
2023-03-25T05:23:35.677Z,93.74
2023-03-25T05:24:35.601Z,93.70
2023-03-25T05:25:35.564Z,93.95
2023-03-25T05:26:35.536Z,94.36
2023-03-25T05:27:35.480Z,93.64
2023-03-25T05:28:35.427Z,94.05
2023-03-25T05:29:35.410Z,93.85
2023-03-25T05:30:35.359Z,93.95
2023-03-25T05:31:35.378Z,94.36
2023-03-25T05:32:35.350Z,94.05
2023-03-25T05:33:35.226Z,94.15
2023-03-25T05:34:35.190Z,94.36
2023-03-25T05:35:35.216Z,94.67
2023-03-25T05:36:35.108Z,94.67
2023-03-25T05:37:35.104Z,94.67
2023-03-25T05:38:35.027Z,94.26
2023-03-25T05:39:34.983Z,94.98
2023-03-25T05:40:34.944Z,94.56
2023-03-25T05:41:34.900Z,95.39
2023-03-25T05:42:34.879Z,94.56
2023-03-25T05:43:34.817Z,95.28
2023-03-25T05:44:34.813Z,94.77
2023-03-25T05:45:34.760Z,94.05
2023-03-25T05:46:34.730Z,94.36
2023-03-25T05:47:34.758Z,94.98
2023-03-25T05:48:34.774Z,94.98
2023-03-25T05:49:34.573Z,93.64
2023-03-25T05:50:34.531Z,93.33
2023-03-25T05:51:34.474Z,93.44
2023-03-25T05:52:34.440Z,93.64
2023-03-25T05:53:34.397Z,92.98
2023-03-25T05:54:34.406Z,92.68
2023-03-25T05:55:34.311Z,93.08
2023-03-25T05:56:34.320Z,93.39
2023-03-25T05:57:34.240Z,93.39
2023-03-25T05:58:34.208Z,93.39
2023-03-25T05:59:34.161Z,93.19
2023-03-25T06:00:34.954Z,93.29
2023-03-25T06:01:34.409Z,93.08
2023-03-25T06:02:34.145Z,93.19
2023-03-25T06:03:34.088Z,92.78
2023-03-25T06:04:33.968Z,92.47
2023-03-25T06:05:33.897Z,92.47
2023-03-25T06:06:34.173Z,92.78
2023-03-25T06:07:33.825Z,92.47
2023-03-25T06:08:33.796Z,92.57
2023-03-25T06:09:33.744Z,92.88
2023-03-25T06:10:33.692Z,92.43
2023-03-25T06:11:33.657Z,93.08
2023-03-25T06:12:33.611Z,92.43
2023-03-25T06:13:33.591Z,91.82
2023-03-25T06:14:33.539Z,91.71
2023-03-25T06:15:33.693Z,92.43
2023-03-25T06:16:33.489Z,92.32
2023-03-25T06:17:33.461Z,92.43
2023-03-25T06:18:33.360Z,92.12
2023-03-25T06:19:33.322Z,92.22
2023-03-25T06:20:33.317Z,92.94
2023-03-25T06:21:33.281Z,93.04
2023-03-25T06:22:33.269Z,93.70
2023-03-25T06:23:33.168Z,92.74
2023-03-25T06:24:33.195Z,93.49
2023-03-25T06:25:33.096Z,93.90
2023-03-25T06:26:33.067Z,94.32
2023-03-25T06:27:32.995Z,94.11
2023-03-25T06:28:32.982Z,94.01
2023-03-25T06:29:32.908Z,94.42
2023-03-25T06:30:32.889Z,94.32
2023-03-25T06:31:32.897Z,94.52
2023-03-25T06:32:32.827Z,94.21
2023-03-25T06:33:42.194Z,94.52
2023-03-25T06:34:32.729Z,96.62
2023-03-25T06:35:32.705Z,96.62
2023-03-25T06:36:32.636Z,97.85
2023-03-25T06:37:32.582Z,97.85
2023-03-25T06:38:32.579Z,97.64
2023-03-25T06:39:32.506Z,98.61
2023-03-25T06:40:32.452Z,99.33
2023-03-25T06:41:32.419Z,99.79
2023-03-25T06:42:32.402Z,99.12
2023-03-25T06:43:32.352Z,99.74
2023-03-25T06:44:33.707Z,99.99
2023-03-25T06:45:32.285Z,99.99
2023-03-25T06:46:32.258Z,99.99
2023-03-25T06:47:32.197Z,99.99
2023-03-25T06:48:32.129Z,99.99
2023-03-25T06:49:32.109Z,99.99
2023-03-25T06:50:32.069Z,99.99
2023-03-25T06:51:32.014Z,99.99
2023-03-25T06:52:31.970Z,99.99
2023-03-25T06:53:32.032Z,99.99
2023-03-25T06:54:31.890Z,99.99
2023-03-25T06:55:31.878Z,99.99
2023-03-25T06:56:32.420Z,99.99
2023-03-25T06:57:31.752Z,99.99
2023-03-25T06:58:31.724Z,99.99
2023-03-25T06:59:31.665Z,99.99
2023-03-25T07:00:31.651Z,99.99
2023-03-25T07:01:31.638Z,99.99
2023-03-25T07:02:31.582Z,99.99
2023-03-25T07:03:31.511Z,99.99
2023-03-25T07:04:31.491Z,99.99
2023-03-25T07:05:31.461Z,99.99
2023-03-25T07:06:31.416Z,99.99
2023-03-25T07:07:31.362Z,99.99
2023-03-25T07:08:31.328Z,99.79
2023-03-25T07:09:31.276Z,99.99
2023-03-25T07:10:31.280Z,99.63
2023-03-25T07:11:41.572Z,99.99
2023-03-25T07:12:31.636Z,99.99
2023-03-25T07:13:31.351Z,99.99
2023-03-25T07:14:31.273Z,99.90
2023-03-25T07:15:31.056Z,99.28
2023-03-25T07:16:31.023Z,99.90
2023-03-25T07:17:30.968Z,99.03
2023-03-25T07:18:31.842Z,98.32
2023-03-25T07:19:31.905Z,98.83
2023-03-25T07:20:32.883Z,98.47
2023-03-25T07:21:32.460Z,98.07
2023-03-25T07:22:30.722Z,97.45
2023-03-25T07:23:30.685Z,97.34
2023-03-25T07:24:30.653Z,95.81
2023-03-25T07:25:30.600Z,95.87
2023-03-25T07:26:30.559Z,96.63
2023-03-25T07:27:30.546Z,96.42
2023-03-25T07:28:30.487Z,96.28
2023-03-25T07:29:30.446Z,95.76
2023-03-25T07:30:30.479Z,95.97
2023-03-25T07:31:30.430Z,95.36
2023-03-25T07:32:30.344Z,94.33
2023-03-25T07:33:35.550Z,94.12
2023-03-25T07:34:30.234Z,94.33
2023-03-25T07:35:30.248Z,94.23
2023-03-25T07:36:30.163Z,93.62
2023-03-25T07:37:30.124Z,93.10
2023-03-25T07:38:30.075Z,93.20
2023-03-25T07:39:30.036Z,92.69
2023-03-25T07:40:30.095Z,92.69
2023-03-25T07:41:29.953Z,92.38
2023-03-25T07:42:29.918Z,92.08
2023-03-25T07:43:29.861Z,92.38
2023-03-25T07:44:29.838Z,92.59
2023-03-25T07:45:29.801Z,92.38
2023-03-25T07:46:29.784Z,92.79
2023-03-25T07:47:29.727Z,91.91
2023-03-25T07:48:29.668Z,91.87
2023-03-25T07:49:29.619Z,92.28
2023-03-25T07:50:29.590Z,92.49
2023-03-25T07:51:29.540Z,91.67
2023-03-25T07:52:29.526Z,92.28
2023-03-25T07:53:29.456Z,91.05
2023-03-25T07:54:29.419Z,91.16
2023-03-25T07:55:29.401Z,91.56
2023-03-25T07:56:30.019Z,91.26
2023-03-25T07:57:29.319Z,90.95
2023-03-25T07:58:29.270Z,91.22
2023-03-25T07:59:29.604Z,90.60
2023-03-25T08:00:29.218Z,90.23
2023-03-25T08:01:29.139Z,90.60
2023-03-25T08:02:29.264Z,89.89
2023-03-25T08:03:29.132Z,91.01
2023-03-25T08:04:29.031Z,90.60
2023-03-25T08:05:28.975Z,90.70
2023-03-25T08:06:28.937Z,90.95
2023-03-25T08:07:28.896Z,89.27
2023-03-25T08:08:28.862Z,89.42
2023-03-25T08:09:28.815Z,89.83
2023-03-25T08:10:28.840Z,90.03
2023-03-25T08:11:28.723Z,90.23
2023-03-25T08:12:28.713Z,89.92
2023-03-25T08:13:28.651Z,89.98
2023-03-25T08:14:28.612Z,90.23
2023-03-25T08:15:28.563Z,90.23
2023-03-25T08:16:28.581Z,90.54
2023-03-25T08:17:29.484Z,89.72
2023-03-25T08:18:28.435Z,89.58
2023-03-25T08:19:28.391Z,89.64
2023-03-25T08:20:28.372Z,90.05
2023-03-25T08:21:28.328Z,89.74
2023-03-25T08:22:28.275Z,90.05
2023-03-25T08:23:28.231Z,89.23
2023-03-25T08:24:28.190Z,88.71
2023-03-25T08:25:28.145Z,88.88
2023-03-25T08:26:28.106Z,88.68
2023-03-25T08:27:28.079Z,88.26
2023-03-25T08:28:28.028Z,87.45
2023-03-25T08:29:27.986Z,87.71
2023-03-25T08:30:27.979Z,86.96
2023-03-25T08:31:27.933Z,87.41
2023-03-25T08:32:27.949Z,86.38
2023-03-25T08:33:27.878Z,86.90
2023-03-25T08:34:28.332Z,87.51
2023-03-25T08:35:27.772Z,85.67
2023-03-25T08:36:27.716Z,87.41
2023-03-25T08:37:27.669Z,87.71
2023-03-25T08:38:27.630Z,87.85
2023-03-25T08:39:27.592Z,88.57
2023-03-25T08:40:27.619Z,87.45
2023-03-25T08:41:27.503Z,87.45
2023-03-25T08:42:27.465Z,87.65
2023-03-25T08:43:27.425Z,86.83
2023-03-25T08:44:27.421Z,87.10
2023-03-25T08:46:30.647Z,87.41
2023-03-25T08:47:30.186Z,86.83
2023-03-25T08:48:37.988Z,87.14
2023-03-25T09:01:16.888Z,86.14
2023-03-25T09:02:12.895Z,83.95
2023-03-25T09:03:14.998Z,84.09
2023-03-25T09:04:19.590Z,84.47
2023-03-25T09:19:31.036Z,83.65
2023-03-25T09:20:33.716Z,84.50
2023-03-25T09:23:56.407Z,83.79
2023-03-25T09:24:56.026Z,84.30
2023-03-25T09:25:53.689Z,84.50
2023-03-25T09:26:55.484Z,84.20
2023-03-25T09:27:54.519Z,83.69
2023-03-25T09:29:53.544Z,84.20
2023-03-25T09:30:53.752Z,83.59
2023-03-25T09:31:53.664Z,83.79
2023-03-25T09:32:54.546Z,84.36
2023-03-25T09:33:54.124Z,83.75
2023-03-25T09:34:54.077Z,83.34
2023-03-25T09:35:53.924Z,84.09
2023-03-25T09:36:53.870Z,83.07
2023-03-25T09:37:53.358Z,84.20
2023-03-25T09:38:55.574Z,84.50
2023-03-25T09:42:41.328Z,82.63
2023-03-25T09:43:40.316Z,82.97
2023-03-25T09:44:40.905Z,82.87
2023-03-25T09:45:40.065Z,82.77
2023-03-25T09:46:41.227Z,82.87
2023-03-25T09:47:41.828Z,83.07
2023-03-25T09:48:41.349Z,83.24
2023-03-25T09:49:40.526Z,82.56
2023-03-25T09:50:40.134Z,82.73
2023-03-25T09:51:41.023Z,81.71
2023-03-25T09:52:41.824Z,82.15
2023-03-25T09:53:40.280Z,82.12
2023-03-25T09:54:41.312Z,82.22
2023-03-25T09:55:40.046Z,81.30
2023-03-25T09:56:42.298Z,81.71
2023-03-25T09:57:39.515Z,81.81
2023-03-25T09:58:48.828Z,82.12
2023-03-25T09:59:46.349Z,81.91
2023-03-25T10:00:45.837Z,81.51
2023-03-25T10:03:22.225Z,81.51
2023-03-25T10:04:23.413Z,81.40
2023-03-25T10:05:20.601Z,80.58
2023-03-25T10:06:21.921Z,81.40
2023-03-25T10:07:21.907Z,81.57
2023-03-25T10:08:21.905Z,81.81
2023-03-25T10:09:20.512Z,81.16
2023-03-25T10:10:20.298Z,81.46
2023-03-25T10:13:18.781Z,80.75
2023-03-25T10:14:17.584Z,80.55
2023-03-25T10:15:16.906Z,81.67
2023-03-25T10:16:17.000Z,81.63
2023-03-25T10:17:18.165Z,81.43
2023-03-25T10:18:17.742Z,80.14
2023-03-25T10:19:17.203Z,81.77
2023-03-25T10:20:16.658Z,81.32
2023-03-25T10:24:01.950Z,81.59
2023-03-25T10:25:02.857Z,80.68
2023-03-25T10:26:04.120Z,79.86
2023-03-25T10:27:02.874Z,79.25
2023-03-25T10:28:03.090Z,79.32
2023-03-25T10:29:01.872Z,79.17
2023-03-25T10:30:02.098Z,79.38
2023-03-25T10:31:02.601Z,79.54
2023-03-25T10:32:04.639Z,78.42
2023-03-25T10:33:01.545Z,78.32
2023-03-25T10:34:01.746Z,77.71
2023-03-25T10:35:02.633Z,77.06
2023-03-25T10:36:01.035Z,77.78
2023-03-25T10:37:00.852Z,77.67
2023-03-25T10:38:03.317Z,77.71
2023-03-25T10:39:01.133Z,78.16
2023-03-25T10:40:02.182Z,78.46
2023-03-25T10:41:03.144Z,79.32
2023-03-25T11:10:04.035Z,81.52
2023-03-25T11:11:05.689Z,81.72
2023-03-25T11:36:19.399Z,84.04
2023-03-25T11:37:18.828Z,84.96
2023-03-25T11:38:18.070Z,85.10
2023-03-25T11:39:18.643Z,85.00
2023-03-25T11:40:17.261Z,87.18
2023-03-25T11:41:17.262Z,88.41
2023-03-25T11:42:17.482Z,88.04
2023-03-25T11:43:17.305Z,89.20
2023-03-25T11:44:17.168Z,90.08
2023-03-25T11:45:17.626Z,90.59
2023-03-25T11:46:17.471Z,92.43
2023-03-25T11:47:17.084Z,92.19
2023-03-25T11:48:17.095Z,92.29
2023-03-25T11:49:17.585Z,88.35
2023-03-25T12:05:07.210Z,84.67
2023-03-25T12:06:07.129Z,86.20
2023-03-25T12:07:15.941Z,87.02
2023-03-25T12:13:12.594Z,90.64
2023-03-25T12:14:13.222Z,89.41
2023-03-25T12:15:15.653Z,89.37
2023-03-25T12:16:16.801Z,90.08
2023-03-25T13:38:54.602Z,99.99
2023-03-25T13:39:54.434Z,99.99
2023-03-25T13:40:54.475Z,99.99
2023-03-25T13:41:54.439Z,99.99
2023-03-25T13:42:54.262Z,99.99
2023-03-25T13:43:54.333Z,99.99
2023-03-25T13:44:54.458Z,99.99
2023-03-25T13:45:54.200Z,99.99
2023-03-25T13:46:54.950Z,99.35
2023-03-25T13:47:55.676Z,99.86
2023-03-25T13:48:54.175Z,98.83
2023-03-25T13:49:56.185Z,99.99
2023-03-25T13:54:15.822Z,99.88
2023-03-25T13:55:15.594Z,99.47
2023-03-25T13:56:15.625Z,98.40
2023-03-25T13:57:15.515Z,97.49
2023-03-25T13:58:15.515Z,96.56
2023-03-25T13:59:17.386Z,96.42
2023-03-25T14:00:15.212Z,94.58
2023-03-25T14:01:15.306Z,96.51
2023-03-25T14:02:15.474Z,96.21
2023-03-25T14:04:18.779Z,94.58
2023-03-25T14:07:27.270Z,96.46
2023-03-25T14:25:36.530Z,93.35
2023-03-25T14:28:36.185Z,94.17
2023-03-25T14:29:45.816Z,94.37
2023-03-25T14:30:35.793Z,92.99
2023-03-25T14:31:36.213Z,93.76
2023-03-25T14:32:37.636Z,93.55
2023-03-25T14:33:37.222Z,93.31
2023-03-25T14:34:36.456Z,93.37
2023-03-25T14:35:35.966Z,91.94
2023-03-25T14:36:34.906Z,90.88
2023-03-25T14:37:36.620Z,90.22
2023-03-25T14:38:38.375Z,89.30
2023-03-25T14:39:34.988Z,90.38
2023-03-25T14:40:42.347Z,89.26
2023-03-25T14:41:35.871Z,88.75
2023-03-25T14:42:35.737Z,88.55
2023-03-25T14:43:39.849Z,88.65
2023-03-25T14:44:41.552Z,89.20
2023-03-25T14:45:57.824Z,89.81
2023-03-25T14:59:19.937Z,92.54
2023-03-25T15:00:15.956Z,92.94
2023-03-25T15:27:27.264Z,99.99
2023-03-25T15:28:30.493Z,99.99
2023-03-25T15:29:26.302Z,99.99
2023-03-25T15:30:26.157Z,99.99
2023-03-25T15:31:26.049Z,99.99
2023-03-25T15:32:26.053Z,99.99
2023-03-25T15:33:25.957Z,99.99
2023-03-25T15:34:25.956Z,99.99
2023-03-25T15:35:25.898Z,99.99
2023-03-25T15:36:25.845Z,99.99
2023-03-25T15:37:35.890Z,99.99
2023-03-25T15:38:25.761Z,99.99
2023-03-25T15:39:25.726Z,99.99
2023-03-25T15:40:25.790Z,99.99
2023-03-25T15:41:25.682Z,99.99
2023-03-25T15:42:25.666Z,99.99
2023-03-25T15:43:25.571Z,99.99
2023-03-25T15:44:26.020Z,99.99
2023-03-25T15:45:25.976Z,99.99
2023-03-25T15:46:25.533Z,99.99
2023-03-25T15:47:25.442Z,99.99
2023-03-25T15:48:25.376Z,99.99
2023-03-25T15:49:25.359Z,99.99
2023-03-25T15:50:25.256Z,99.99
2023-03-25T15:51:25.249Z,99.99
2023-03-25T15:52:25.962Z,99.99
2023-03-25T15:53:39.589Z,99.99
2023-03-25T15:54:25.066Z,99.99
2023-03-25T15:55:28.555Z,99.82
2023-03-25T15:56:25.031Z,99.71
2023-03-25T15:57:25.104Z,99.99
2023-03-25T15:58:25.034Z,99.99
2023-03-25T15:59:24.948Z,99.99
2023-03-25T16:00:24.861Z,99.99
2023-03-25T16:01:24.913Z,99.91
2023-03-25T16:02:24.857Z,99.99
2023-03-25T16:03:24.775Z,99.99
2023-03-25T16:04:24.675Z,99.91
2023-03-25T16:05:24.619Z,99.99
2023-03-25T16:06:24.627Z,99.99
2023-03-25T16:07:24.542Z,99.99
2023-03-25T16:08:25.260Z,99.99
2023-03-25T16:09:26.118Z,99.99
2023-03-25T16:10:40.000Z,99.99
2023-03-25T16:11:27.481Z,99.99
2023-03-25T16:12:24.381Z,99.99
2023-03-25T16:13:24.359Z,99.99
2023-03-25T16:14:27.191Z,99.20
2023-03-25T16:15:24.225Z,97.77
2023-03-25T16:16:24.182Z,98.74
2023-03-25T16:17:24.229Z,99.20
2023-03-25T16:18:24.076Z,98.54
2023-03-25T16:19:24.060Z,98.65
2023-03-25T16:20:24.084Z,98.44
2023-03-25T16:21:23.988Z,99.05
2023-03-25T16:22:23.923Z,99.05
2023-03-25T16:23:23.894Z,97.72
2023-03-25T16:24:23.854Z,97.41
2023-03-25T16:25:23.869Z,97.06
2023-03-25T16:26:23.780Z,97.57
2023-03-25T16:27:23.720Z,98.08
2023-03-25T16:28:23.678Z,97.57
2023-03-25T16:29:23.633Z,97.78
2023-03-25T16:30:24.588Z,97.67
2023-03-25T16:31:23.702Z,97.88
2023-03-25T16:32:23.533Z,97.57
2023-03-25T16:33:23.474Z,97.27
2023-03-25T16:34:24.104Z,97.98
2023-03-25T16:35:23.390Z,98.08
2023-03-25T16:36:23.348Z,97.06
2023-03-25T16:37:23.340Z,96.34
2023-03-25T16:38:23.290Z,95.63
2023-03-25T16:39:23.273Z,95.12
2023-03-25T16:40:23.193Z,93.85
2023-03-25T16:41:23.167Z,93.89
2023-03-25T16:42:23.127Z,92.56
2023-03-25T16:43:23.107Z,92.77
2023-03-25T16:44:26.486Z,93.03
2023-03-25T16:45:23.180Z,93.13
2023-03-25T16:46:22.990Z,93.24
2023-03-25T16:47:22.932Z,93.13
2023-03-25T16:48:22.907Z,93.54
2023-03-25T16:49:22.883Z,93.24
2023-03-25T16:50:22.848Z,93.44
2023-03-25T16:51:22.788Z,93.85
2023-03-25T16:52:22.704Z,91.80
2023-03-25T16:53:22.675Z,92.21
2023-03-25T16:55:23.991Z,92.97
2023-03-25T16:56:28.685Z,92.66
2023-03-25T16:57:22.527Z,93.99
2023-03-25T16:58:37.418Z,94.40
2023-03-25T16:59:22.424Z,95.37
2023-03-25T17:00:22.381Z,95.67
2023-03-25T17:01:25.186Z,96.29
2023-03-25T17:02:23.488Z,98.07
2023-03-25T17:03:22.341Z,98.58
2023-03-25T17:07:24.877Z,99.82
2023-03-25T17:08:00.356Z,99.99
2023-03-25T17:08:56.345Z,99.99
2023-03-25T17:09:56.336Z,99.99
2023-03-25T17:11:06.358Z,99.99
2023-03-25T17:13:05.385Z,99.45
2023-03-25T17:18:27.998Z,98.83
2023-03-25T17:19:29.565Z,98.33